sensor_id;sensor_type;location;lat;lon;timestamp;pressure;altitude;pressure_sealevel;temperature;humidity
75208;BME280;63795;55.684;37.864;2023-06-22T00:00:20;100027.44;;;15.54;45.19
75208;BME280;63795;55.684;37.864;2023-06-22T00:05:21;100022.22;;;15.49;42.68
75208;BME280;63795;55.684;37.864;2023-06-22T00:10:22;100023.56;;;15.41;45.90
75208;BME280;63795;55.684;37.864;2023-06-22T00:15:22;100013.22;;;15.27;46.63
75208;BME280;63795;55.684;37.864;2023-06-22T00:20:23;100015.06;;;15.14;47.40
75208;BME280;63795;55.684;37.864;2023-06-22T00:25:27;100025.03;;;15.02;46.18
75208;BME280;63795;55.684;37.864;2023-06-22T00:30:28;100035.59;;;15.05;47.40
75208;BME280;63795;55.684;37.864;2023-06-22T00:35:28;100032.41;;;15.00;47.73
75208;BME280;63795;55.684;37.864;2023-06-22T00:40:31;100026.84;;;14.93;47.04
75208;BME280;63795;55.684;37.864;2023-06-22T00:45:31;100023.63;;;14.91;45.68
75208;BME280;63795;55.684;37.864;2023-06-22T00:50:33;100018.81;;;14.84;47.64
75208;BME280;63795;55.684;37.864;2023-06-22T00:55:41;100030.00;;;14.72;46.81
75208;BME280;63795;55.684;37.864;2023-06-22T01:00:47;100014.25;;;14.64;49.07
75208;BME280;63795;55.684;37.864;2023-06-22T01:05:49;100011.59;;;14.49;49.80
75208;BME280;63795;55.684;37.864;2023-06-22T01:10:58;100024.25;;;14.48;49.94
75208;BME280;63795;55.684;37.864;2023-06-22T01:16:03;100023.91;;;14.43;49.46
75208;BME280;63795;55.684;37.864;2023-06-22T01:21:06;100026.75;;;14.43;49.14
75208;BME280;63795;55.684;37.864;2023-06-22T01:26:18;100028.44;;;14.40;48.94
75208;BME280;63795;55.684;37.864;2023-06-22T01:31:23;100040.13;;;14.49;48.45
75208;BME280;63795;55.684;37.864;2023-06-22T01:36:25;100024.19;;;14.52;49.26
75208;BME280;63795;55.684;37.864;2023-06-22T01:41:28;100024.84;;;14.36;48.94
75208;BME280;63795;55.684;37.864;2023-06-22T01:46:29;100030.03;;;14.41;49.87
75208;BME280;63795;55.684;37.864;2023-06-22T01:51:30;100032.91;;;14.41;47.68
75208;BME280;63795;55.684;37.864;2023-06-22T01:56:31;100022.31;;;14.42;48.55
75208;BME280;63795;55.684;37.864;2023-06-22T02:01:39;100011.34;;;14.37;49.63
75208;BME280;63795;55.684;37.864;2023-06-22T02:06:45;100027.94;;;14.45;48.31
75208;BME280;63795;55.684;37.864;2023-06-22T02:11:47;100009.38;;;14.34;49.99
75208;BME280;63795;55.684;37.864;2023-06-22T02:16:51;100029.91;;;14.52;50.47
75208;BME280;63795;55.684;37.864;2023-06-22T02:21:51;100028.25;;;14.55;48.10
75208;BME280;63795;55.684;37.864;2023-06-22T02:26:52;100010.94;;;14.65;49.07
75208;BME280;63795;55.684;37.864;2023-06-22T02:31:53;100004.59;;;14.54;50.06
75208;BME280;63795;55.684;37.864;2023-06-22T02:36:53;100012.41;;;14.50;49.95
75208;BME280;63795;55.684;37.864;2023-06-22T02:41:54;99993.41;;;14.40;50.43
75208;BME280;63795;55.684;37.864;2023-06-22T02:46:55;99987.25;;;14.41;50.35
75208;BME280;63795;55.684;37.864;2023-06-22T02:51:56;99988.91;;;14.39;51.40
75208;BME280;63795;55.684;37.864;2023-06-22T02:56:57;99984.91;;;14.36;51.22
75208;BME280;63795;55.684;37.864;2023-06-22T03:01:58;99974.63;;;14.42;51.37
75208;BME280;63795;55.684;37.864;2023-06-22T03:06:58;99981.09;;;14.46;51.77
75208;BME280;63795;55.684;37.864;2023-06-22T03:12:01;99983.44;;;14.52;51.49
75208;BME280;63795;55.684;37.864;2023-06-22T03:17:03;99967.00;;;14.59;51.70
75208;BME280;63795;55.684;37.864;2023-06-22T03:22:04;99975.78;;;14.72;51.44
75208;BME280;63795;55.684;37.864;2023-06-22T03:27:04;99980.81;;;14.87;51.18
75208;BME280;63795;55.684;37.864;2023-06-22T03:32:06;99970.66;;;15.09;50.82
75208;BME280;63795;55.684;37.864;2023-06-22T03:37:07;99966.03;;;15.19;51.10
75208;BME280;63795;55.684;37.864;2023-06-22T03:42:07;99963.28;;;15.35;50.87
75208;BME280;63795;55.684;37.864;2023-06-22T03:47:08;99970.16;;;15.61;48.76
75208;BME280;63795;55.684;37.864;2023-06-22T03:52:09;99959.91;;;15.83;48.21
75208;BME280;63795;55.684;37.864;2023-06-22T03:57:11;99954.63;;;16.01;47.56
75208;BME280;63795;55.684;37.864;2023-06-22T04:02:11;99956.13;;;16.25;47.04
75208;BME280;63795;55.684;37.864;2023-06-22T04:07:12;99946.41;;;16.39;46.57
75208;BME280;63795;55.684;37.864;2023-06-22T04:12:12;99944.31;;;16.59;46.25
75208;BME280;63795;55.684;37.864;2023-06-22T04:17:13;99948.78;;;16.76;45.71
75208;BME280;63795;55.684;37.864;2023-06-22T04:22:14;99942.69;;;16.90;45.37
75208;BME280;63795;55.684;37.864;2023-06-22T04:27:14;99945.66;;;17.02;45.02
75208;BME280;63795;55.684;37.864;2023-06-22T04:32:15;99944.84;;;17.18;44.87
75208;BME280;63795;55.684;37.864;2023-06-22T04:37:18;99924.38;;;17.32;44.08
75208;BME280;63795;55.684;37.864;2023-06-22T04:42:19;99922.22;;;17.52;42.84
75208;BME280;63795;55.684;37.864;2023-06-22T04:47:20;99918.41;;;17.71;43.33
75208;BME280;63795;55.684;37.864;2023-06-22T04:52:20;99917.28;;;17.81;42.69
75208;BME280;63795;55.684;37.864;2023-06-22T04:57:21;99922.72;;;18.05;42.76
75208;BME280;63795;55.684;37.864;2023-06-22T05:02:30;99917.09;;;18.14;41.65
75208;BME280;63795;55.684;37.864;2023-06-22T05:07:34;99920.66;;;18.18;41.93
75208;BME280;63795;55.684;37.864;2023-06-22T05:12:35;99929.75;;;18.29;41.96
75208;BME280;63795;55.684;37.864;2023-06-22T05:17:36;99936.47;;;18.51;42.07
75208;BME280;63795;55.684;37.864;2023-06-22T05:22:41;99917.97;;;18.64;41.75
75208;BME280;63795;55.684;37.864;2023-06-22T05:27:43;99924.06;;;18.79;41.79
75208;BME280;63795;55.684;37.864;2023-06-22T05:32:44;99921.72;;;18.99;40.89
75208;BME280;63795;55.684;37.864;2023-06-22T05:37:45;99918.72;;;19.15;41.03
75208;BME280;63795;55.684;37.864;2023-06-22T05:42:45;99921.66;;;19.24;39.77
75208;BME280;63795;55.684;37.864;2023-06-22T05:47:45;99923.25;;;19.38;39.88
75208;BME280;63795;55.684;37.864;2023-06-22T05:52:46;99928.28;;;19.46;38.77
75208;BME280;63795;55.684;37.864;2023-06-22T05:57:46;99916.66;;;19.50;38.52
75208;BME280;63795;55.684;37.864;2023-06-22T06:02:47;99910.84;;;19.63;38.28
75208;BME280;63795;55.684;37.864;2023-06-22T06:07:49;99914.06;;;19.86;37.37
75208;BME280;63795;55.684;37.864;2023-06-22T06:12:50;99908.56;;;20.01;36.99
75208;BME280;63795;55.684;37.864;2023-06-22T06:17:52;99914.78;;;20.21;37.01
75208;BME280;63795;55.684;37.864;2023-06-22T06:22:53;99907.88;;;20.40;36.11
75208;BME280;63795;55.684;37.864;2023-06-22T06:27:53;99903.09;;;20.46;36.61
75208;BME280;63795;55.684;37.864;2023-06-22T06:32:57;99912.28;;;20.63;35.63
75208;BME280;63795;55.684;37.864;2023-06-22T06:37:57;99911.53;;;20.80;35.31
75208;BME280;63795;55.684;37.864;2023-06-22T06:42:58;99910.38;;;21.17;36.55
75208;BME280;63795;55.684;37.864;2023-06-22T06:47:58;99910.75;;;21.92;33.90
75208;BME280;63795;55.684;37.864;2023-06-22T06:52:59;99892.94;;;22.53;32.94
75208;BME280;63795;55.684;37.864;2023-06-22T06:57:59;99897.41;;;22.96;34.25
75208;BME280;63795;55.684;37.864;2023-06-22T07:03:00;99890.91;;;23.34;31.13
75208;BME280;63795;55.684;37.864;2023-06-22T07:08:01;99897.47;;;23.58;30.85
75208;BME280;63795;55.684;37.864;2023-06-22T07:13:01;99896.47;;;23.61;30.09
75208;BME280;63795;55.684;37.864;2023-06-22T07:18:02;99895.56;;;23.55;29.19
75208;BME280;63795;55.684;37.864;2023-06-22T07:23:02;99895.63;;;23.84;30.44
75208;BME280;63795;55.684;37.864;2023-06-22T07:28:04;99887.31;;;23.77;28.99
75208;BME280;63795;55.684;37.864;2023-06-22T07:33:05;99888.84;;;23.87;28.83
75208;BME280;63795;55.684;37.864;2023-06-22T07:38:08;99891.69;;;23.58;28.86
75208;BME280;63795;55.684;37.864;2023-06-22T07:43:09;99884.63;;;23.74;29.12
75208;BME280;63795;55.684;37.864;2023-06-22T07:48:10;99890.78;;;23.52;29.02
75208;BME280;63795;55.684;37.864;2023-06-22T07:53:10;99880.56;;;23.80;28.71
75208;BME280;63795;55.684;37.864;2023-06-22T07:58:10;99889.31;;;24.38;29.02
75208;BME280;63795;55.684;37.864;2023-06-22T08:03:11;99891.38;;;24.53;28.43
75208;BME280;63795;55.684;37.864;2023-06-22T08:08:11;99872.81;;;24.30;28.29
75208;BME280;63795;55.684;37.864;2023-06-22T08:13:12;99875.19;;;24.31;27.78
75208;BME280;63795;55.684;37.864;2023-06-22T08:18:12;99872.75;;;24.59;28.71
75208;BME280;63795;55.684;37.864;2023-06-22T08:23:13;99870.13;;;24.90;28.46
75208;BME280;63795;55.684;37.864;2023-06-22T08:28:13;99867.34;;;24.81;28.10
75208;BME280;63795;55.684;37.864;2023-06-22T08:33:14;99866.44;;;25.10;27.81
75208;BME280;63795;55.684;37.864;2023-06-22T08:38:14;99865.53;;;25.59;28.15
75208;BME280;63795;55.684;37.864;2023-06-22T08:43:15;99878.69;;;25.54;27.29
75208;BME280;63795;55.684;37.864;2023-06-22T08:48:16;99865.16;;;25.11;26.83
75208;BME280;63795;55.684;37.864;2023-06-22T08:53:16;99851.59;;;25.22;27.07
75208;BME280;63795;55.684;37.864;2023-06-22T08:58:17;99852.91;;;25.42;27.33
75208;BME280;63795;55.684;37.864;2023-06-22T09:03:18;99845.53;;;25.41;27.80
75208;BME280;63795;55.684;37.864;2023-06-22T09:08:20;99841.38;;;25.93;27.07
75208;BME280;63795;55.684;37.864;2023-06-22T09:13:21;99837.69;;;25.72;26.46
75208;BME280;63795;55.684;37.864;2023-06-22T09:18:22;99839.47;;;25.90;26.35
75208;BME280;63795;55.684;37.864;2023-06-22T09:23:22;99831.38;;;25.99;26.53
75208;BME280;63795;55.684;37.864;2023-06-22T09:28:23;99818.19;;;26.30;26.70
75208;BME280;63795;55.684;37.864;2023-06-22T09:33:25;99814.97;;;26.90;25.52
75208;BME280;63795;55.684;37.864;2023-06-22T09:38:25;99824.72;;;26.81;25.70
75208;BME280;63795;55.684;37.864;2023-06-22T09:43:27;99815.63;;;27.16;25.08
75208;BME280;63795;55.684;37.864;2023-06-22T09:48:28;99815.25;;;27.45;23.36
75208;BME280;63795;55.684;37.864;2023-06-22T09:53:30;99818.25;;;27.14;24.39
75208;BME280;63795;55.684;37.864;2023-06-22T09:58:31;99815.75;;;27.38;23.66
75208;BME280;63795;55.684;37.864;2023-06-22T10:03:31;99806.31;;;27.71;24.26
75208;BME280;63795;55.684;37.864;2023-06-22T10:08:31;99792.91;;;28.18;22.56
75208;BME280;63795;55.684;37.864;2023-06-22T10:13:32;99795.28;;;28.14;22.31
75208;BME280;63795;55.684;37.864;2023-06-22T10:18:33;99798.19;;;27.97;22.21
75208;BME280;63795;55.684;37.864;2023-06-22T10:23:33;99800.06;;;28.28;22.66
75208;BME280;63795;55.684;37.864;2023-06-22T10:28:34;99798.72;;;28.12;22.98
75208;BME280;63795;55.684;37.864;2023-06-22T10:33:34;99788.13;;;28.20;23.28
75208;BME280;63795;55.684;37.864;2023-06-22T10:38:35;99779.00;;;29.01;22.25
75208;BME280;63795;55.684;37.864;2023-06-22T10:43:35;99776.59;;;29.05;21.76
75208;BME280;63795;55.684;37.864;2023-06-22T10:48:35;99758.72;;;28.24;22.71
75208;BME280;63795;55.684;37.864;2023-06-22T10:53:36;99766.38;;;28.49;22.28
75208;BME280;63795;55.684;37.864;2023-06-22T10:58:36;99770.34;;;28.74;22.17
75208;BME280;63795;55.684;37.864;2023-06-22T11:03:37;99754.09;;;28.89;22.23
75208;BME280;63795;55.684;37.864;2023-06-22T11:08:37;99757.28;;;29.49;21.51
75208;BME280;63795;55.684;37.864;2023-06-22T11:13:37;99761.72;;;29.61;21.69
75208;BME280;63795;55.684;37.864;2023-06-22T11:18:38;99752.09;;;29.77;22.05
75208;BME280;63795;55.684;37.864;2023-06-22T11:23:38;99764.16;;;29.57;22.30
75208;BME280;63795;55.684;37.864;2023-06-22T11:28:39;99751.16;;;28.95;22.46
75208;BME280;63795;55.684;37.864;2023-06-22T11:33:39;99749.81;;;29.01;22.67
75208;BME280;63795;55.684;37.864;2023-06-22T11:38:40;99747.72;;;29.54;21.76
75208;BME280;63795;55.684;37.864;2023-06-22T11:43:40;99733.03;;;29.18;22.60
75208;BME280;63795;55.684;37.864;2023-06-22T11:48:41;99731.72;;;29.14;22.50
75208;BME280;63795;55.684;37.864;2023-06-22T11:53:41;99733.25;;;29.72;22.49
75208;BME280;63795;55.684;37.864;2023-06-22T11:58:42;99722.66;;;29.64;22.73
75208;BME280;63795;55.684;37.864;2023-06-22T12:03:42;99708.59;;;29.10;23.28
75208;BME280;63795;55.684;37.864;2023-06-22T12:08:45;99705.44;;;29.08;22.70
75208;BME280;63795;55.684;37.864;2023-06-22T12:13:46;99694.25;;;29.59;23.17
75208;BME280;63795;55.684;37.864;2023-06-22T12:18:47;99692.84;;;29.71;22.49
75208;BME280;63795;55.684;37.864;2023-06-22T12:23:47;99680.41;;;29.65;22.27
75208;BME280;63795;55.684;37.864;2023-06-22T12:28:48;99665.03;;;29.23;22.24
75208;BME280;63795;55.684;37.864;2023-06-22T12:33:48;99671.47;;;29.52;22.55
75208;BME280;63795;55.684;37.864;2023-06-22T12:38:48;99668.34;;;29.44;22.98
75208;BME280;63795;55.684;37.864;2023-06-22T12:43:49;99659.22;;;29.12;23.14
75208;BME280;63795;55.684;37.864;2023-06-22T12:48:49;99652.34;;;29.10;23.53
75208;BME280;63795;55.684;37.864;2023-06-22T12:53:50;99643.59;;;29.10;23.63
75208;BME280;63795;55.684;37.864;2023-06-22T12:58:50;99647.41;;;28.94;23.90
75208;BME280;63795;55.684;37.864;2023-06-22T13:03:51;99642.28;;;29.05;23.50
75208;BME280;63795;55.684;37.864;2023-06-22T13:08:51;99631.25;;;29.33;23.72
75208;BME280;63795;55.684;37.864;2023-06-22T13:13:51;99616.84;;;29.71;23.03
75208;BME280;63795;55.684;37.864;2023-06-22T13:18:52;99631.44;;;30.06;23.53
75208;BME280;63795;55.684;37.864;2023-06-22T13:23:52;99611.72;;;30.12;22.31
75208;BME280;63795;55.684;37.864;2023-06-22T13:28:53;99620.09;;;29.97;23.16
75208;BME280;63795;55.684;37.864;2023-06-22T13:33:53;99617.84;;;30.08;23.03
75208;BME280;63795;55.684;37.864;2023-06-22T13:38:54;99609.03;;;29.84;23.15
75208;BME280;63795;55.684;37.864;2023-06-22T13:43:55;99609.84;;;29.85;23.44
75208;BME280;63795;55.684;37.864;2023-06-22T13:48:56;99596.69;;;30.21;22.78
75208;BME280;63795;55.684;37.864;2023-06-22T13:53:56;99583.88;;;30.30;22.81
75208;BME280;63795;55.684;37.864;2023-06-22T13:58:56;99579.72;;;29.66;22.98
75208;BME280;63795;55.684;37.864;2023-06-22T14:03:57;99580.09;;;29.21;23.15
75208;BME280;63795;55.684;37.864;2023-06-22T14:08:57;99579.19;;;28.91;23.35
75208;BME280;63795;55.684;37.864;2023-06-22T14:13:58;99577.47;;;28.66;23.97
75208;BME280;63795;55.684;37.864;2023-06-22T14:18:58;99575.41;;;28.55;24.00
75208;BME280;63795;55.684;37.864;2023-06-22T14:23:59;99579.75;;;28.27;23.97
75208;BME280;63795;55.684;37.864;2023-06-22T14:28:59;99566.84;;;27.89;24.50
75208;BME280;63795;55.684;37.864;2023-06-22T14:34:01;99565.25;;;27.99;24.24
75208;BME280;63795;55.684;37.864;2023-06-22T14:39:03;99554.41;;;27.83;24.74
75208;BME280;63795;55.684;37.864;2023-06-22T14:44:04;99571.09;;;27.83;24.60
75208;BME280;63795;55.684;37.864;2023-06-22T14:49:04;99561.28;;;27.80;24.63
75208;BME280;63795;55.684;37.864;2023-06-22T14:54:05;99555.13;;;28.17;24.48
75208;BME280;63795;55.684;37.864;2023-06-22T14:59:06;99556.56;;;28.51;24.27
75208;BME280;63795;55.684;37.864;2023-06-22T15:04:06;99557.41;;;28.40;24.33
75208;BME280;63795;55.684;37.864;2023-06-22T15:09:07;99553.56;;;28.16;24.87
75208;BME280;63795;55.684;37.864;2023-06-22T15:14:07;99546.69;;;28.08;25.12
75208;BME280;63795;55.684;37.864;2023-06-22T15:19:08;99541.66;;;27.86;25.25
75208;BME280;63795;55.684;37.864;2023-06-22T15:24:10;99541.97;;;27.66;25.06
75208;BME280;63795;55.684;37.864;2023-06-22T15:29:11;99540.69;;;27.39;26.95
75208;BME280;63795;55.684;37.864;2023-06-22T15:34:13;99546.63;;;26.64;28.75
75208;BME280;63795;55.684;37.864;2023-06-22T15:39:13;99556.84;;;25.89;30.56
75208;BME280;63795;55.684;37.864;2023-06-22T15:44:14;99558.13;;;25.41;29.59
75208;BME280;63795;55.684;37.864;2023-06-22T15:49:16;99555.28;;;25.20;30.85
75208;BME280;63795;55.684;37.864;2023-06-22T15:54:16;99557.31;;;25.09;30.68
75208;BME280;63795;55.684;37.864;2023-06-22T15:59:17;99549.91;;;25.08;30.74
75208;BME280;63795;55.684;37.864;2023-06-22T16:04:18;99568.78;;;24.98;30.94
75208;BME280;63795;55.684;37.864;2023-06-22T16:09:18;99566.00;;;24.63;31.79
75208;BME280;63795;55.684;37.864;2023-06-22T16:14:19;99560.13;;;24.32;32.40
75208;BME280;63795;55.684;37.864;2023-06-22T16:19:19;99558.47;;;24.25;32.04
75208;BME280;63795;55.684;37.864;2023-06-22T16:24:20;99568.25;;;24.28;32.23
75208;BME280;63795;55.684;37.864;2023-06-22T16:29:20;99559.78;;;23.70;33.37
75208;BME280;63795;55.684;37.864;2023-06-22T16:34:20;99559.25;;;23.71;32.58
75208;BME280;63795;55.684;37.864;2023-06-22T16:39:21;99554.91;;;23.61;34.23
75208;BME280;63795;55.684;37.864;2023-06-22T16:44:22;99558.56;;;23.41;33.73
75208;BME280;63795;55.684;37.864;2023-06-22T16:49:22;99558.03;;;23.43;33.46
75208;BME280;63795;55.684;37.864;2023-06-22T16:54:23;99563.38;;;23.01;35.52
75208;BME280;63795;55.684;37.864;2023-06-22T16:59:24;99552.50;;;22.43;36.19
75208;BME280;63795;55.684;37.864;2023-06-22T17:04:27;99546.44;;;22.02;37.07
75208;BME280;63795;55.684;37.864;2023-06-22T17:09:29;99556.16;;;22.14;37.55
75208;BME280;63795;55.684;37.864;2023-06-22T17:14:31;99559.91;;;21.73;38.61
75208;BME280;63795;55.684;37.864;2023-06-22T17:19:32;99564.88;;;21.49;39.45
75208;BME280;63795;55.684;37.864;2023-06-22T17:24:32;99572.03;;;21.21;39.56
75208;BME280;63795;55.684;37.864;2023-06-22T17:29:33;99559.78;;;21.02;40.83
75208;BME280;63795;55.684;37.864;2023-06-22T17:34:35;99566.34;;;21.02;40.76
75208;BME280;63795;55.684;37.864;2023-06-22T17:39:35;99557.56;;;20.88;39.60
75208;BME280;63795;55.684;37.864;2023-06-22T17:44:36;99563.19;;;20.73;40.25
75208;BME280;63795;55.684;37.864;2023-06-22T17:49:38;99566.78;;;20.32;42.38
75208;BME280;63795;55.684;37.864;2023-06-22T17:54:38;99574.59;;;20.31;42.13
75208;BME280;63795;55.684;37.864;2023-06-22T17:59:39;99575.38;;;19.96;42.31
75208;BME280;63795;55.684;37.864;2023-06-22T18:04:40;99579.19;;;19.84;42.90
75208;BME280;63795;55.684;37.864;2023-06-22T18:09:41;99573.84;;;19.64;43.81
75208;BME280;63795;55.684;37.864;2023-06-22T18:14:41;99581.16;;;19.47;44.06
75208;BME280;63795;55.684;37.864;2023-06-22T18:19:42;99577.69;;;19.30;44.75
75208;BME280;63795;55.684;37.864;2023-06-22T18:24:45;99581.16;;;19.16;45.18
75208;BME280;63795;55.684;37.864;2023-06-22T18:29:48;99576.88;;;19.21;44.85
75208;BME280;63795;55.684;37.864;2023-06-22T18:34:50;99567.81;;;19.31;44.47
75208;BME280;63795;55.684;37.864;2023-06-22T18:39:55;99569.22;;;19.27;44.99
75208;BME280;63795;55.684;37.864;2023-06-22T18:44:57;99567.00;;;19.31;44.05
75208;BME280;63795;55.684;37.864;2023-06-22T18:50:07;99558.31;;;19.13;44.39
75208;BME280;63795;55.684;37.864;2023-06-22T18:55:11;99555.44;;;18.82;45.37
75208;BME280;63795;55.684;37.864;2023-06-22T19:00:14;99557.88;;;18.62;46.18
75208;BME280;63795;55.684;37.864;2023-06-22T19:05:16;99551.75;;;18.51;46.23
75208;BME280;63795;55.684;37.864;2023-06-22T19:10:25;99551.09;;;18.47;46.59
75208;BME280;63795;55.684;37.864;2023-06-22T19:15:32;99540.56;;;18.31;47.32
75208;BME280;63795;55.684;37.864;2023-06-22T19:20:33;99538.34;;;18.14;47.68
75208;BME280;63795;55.684;37.864;2023-06-22T19:25:36;99533.59;;;17.98;48.32
75208;BME280;63795;55.684;37.864;2023-06-22T19:30:37;99539.28;;;17.89;48.91
75208;BME280;63795;55.684;37.864;2023-06-22T19:35:39;99539.66;;;17.78;49.38
75208;BME280;63795;55.684;37.864;2023-06-22T19:40:40;99531.06;;;17.66;48.90
75208;BME280;63795;55.684;37.864;2023-06-22T19:45:41;99540.41;;;17.57;48.98
75208;BME280;63795;55.684;37.864;2023-06-22T19:50:42;99542.25;;;17.51;48.94
75208;BME280;63795;55.684;37.864;2023-06-22T19:55:47;99535.91;;;17.44;49.42
75208;BME280;63795;55.684;37.864;2023-06-22T20:00:48;99527.91;;;17.26;50.08
75208;BME280;63795;55.684;37.864;2023-06-22T20:05:53;99526.88;;;17.08;50.62
75208;BME280;63795;55.684;37.864;2023-06-22T20:10:55;99526.78;;;16.98;50.61
75208;BME280;63795;55.684;37.864;2023-06-22T20:16:08;99525.06;;;16.88;51.00
75208;BME280;63795;55.684;37.864;2023-06-22T20:21:12;99508.81;;;16.73;51.73
75208;BME280;63795;55.684;37.864;2023-06-22T20:26:13;99519.78;;;16.62;52.22
75208;BME280;63795;55.684;37.864;2023-06-22T20:31:17;99510.75;;;16.51;52.52
75208;BME280;63795;55.684;37.864;2023-06-22T20:36:17;99505.53;;;16.46;52.66
75208;BME280;63795;55.684;37.864;2023-06-22T20:41:18;99489.50;;;16.36;52.59
75208;BME280;63795;55.684;37.864;2023-06-22T20:46:18;99489.50;;;16.23;52.87
75208;BME280;63795;55.684;37.864;2023-06-22T20:51:19;99486.13;;;16.12;53.47
75208;BME280;63795;55.684;37.864;2023-06-22T20:56:19;99480.97;;;16.07;53.46
75208;BME280;63795;55.684;37.864;2023-06-22T21:01:20;99466.63;;;15.94;53.62
75208;BME280;63795;55.684;37.864;2023-06-22T21:06:20;99470.72;;;15.93;53.71
75208;BME280;63795;55.684;37.864;2023-06-22T21:11:21;99447.03;;;15.80;53.77
75208;BME280;63795;55.684;37.864;2023-06-22T21:16:21;99460.63;;;15.76;54.45
75208;BME280;63795;55.684;37.864;2023-06-22T21:21:22;99457.94;;;15.69;54.53
75208;BME280;63795;55.684;37.864;2023-06-22T21:26:22;99444.69;;;15.63;54.78
75208;BME280;63795;55.684;37.864;2023-06-22T21:31:23;99444.41;;;15.57;54.83
75208;BME280;63795;55.684;37.864;2023-06-22T21:36:23;99447.28;;;15.57;54.19
75208;BME280;63795;55.684;37.864;2023-06-22T21:41:24;99425.25;;;15.42;54.45
75208;BME280;63795;55.684;37.864;2023-06-22T21:46:24;99431.88;;;15.39;54.57
75208;BME280;63795;55.684;37.864;2023-06-22T21:51:25;99432.75;;;15.35;54.62
75208;BME280;63795;55.684;37.864;2023-06-22T21:56:26;99436.41;;;15.36;54.13
75208;BME280;63795;55.684;37.864;2023-06-22T22:01:26;99429.28;;;15.28;54.62
75208;BME280;63795;55.684;37.864;2023-06-22T22:06:27;99407.19;;;15.16;54.64
75208;BME280;63795;55.684;37.864;2023-06-22T22:11:30;99396.69;;;15.13;54.50
75208;BME280;63795;55.684;37.864;2023-06-22T22:16:31;99387.94;;;15.04;54.53
75208;BME280;63795;55.684;37.864;2023-06-22T22:21:31;99378.66;;;15.00;54.53
75208;BME280;63795;55.684;37.864;2023-06-22T22:26:31;99378.88;;;14.93;54.96
75208;BME280;63795;55.684;37.864;2023-06-22T22:31:32;99377.34;;;14.88;55.16
75208;BME280;63795;55.684;37.864;2023-06-22T22:36:38;99362.63;;;14.74;55.36
75208;BME280;63795;55.684;37.864;2023-06-22T22:41:41;99346.06;;;14.69;55.65
75208;BME280;63795;55.684;37.864;2023-06-22T22:46:42;99344.81;;;14.70;55.25
75208;BME280;63795;55.684;37.864;2023-06-22T22:51:42;99369.78;;;14.66;55.36
75208;BME280;63795;55.684;37.864;2023-06-22T22:56:43;99390.66;;;14.63;55.49
75208;BME280;63795;55.684;37.864;2023-06-22T23:01:43;99371.28;;;14.70;55.08
75208;BME280;63795;55.684;37.864;2023-06-22T23:06:44;99351.59;;;14.60;55.33
75208;BME280;63795;55.684;37.864;2023-06-22T23:11:45;99353.28;;;14.57;55.37
75208;BME280;63795;55.684;37.864;2023-06-22T23:16:45;99362.91;;;14.63;55.48
75208;BME280;63795;55.684;37.864;2023-06-22T23:21:46;99359.97;;;14.67;55.31
75208;BME280;63795;55.684;37.864;2023-06-22T23:26:49;99336.81;;;14.65;55.55
75208;BME280;63795;55.684;37.864;2023-06-22T23:31:51;99336.25;;;14.54;55.51
75208;BME280;63795;55.684;37.864;2023-06-22T23:36:52;99323.69;;;14.51;55.42
75208;BME280;63795;55.684;37.864;2023-06-22T23:41:52;99340.72;;;14.55;55.33
75208;BME280;63795;55.684;37.864;2023-06-22T23:46:53;99345.88;;;14.60;55.03
75208;BME280;63795;55.684;37.864;2023-06-22T23:51:54;99340.72;;;14.55;55.34
75208;BME280;63795;55.684;37.864;2023-06-22T23:56:54;99318.78;;;14.35;55.70
